sensor_id;sensor_type;location;lat;lon;timestamp;temperature;humidity
20487;DHT22;10402;49.012;8.370;2022-08-14T00:00:46;22.10;44.10
20487;DHT22;10402;49.012;8.370;2022-08-14T00:03:24;22.00;44.10
20487;DHT22;10402;49.012;8.370;2022-08-14T00:05:50;22.00;44.20
20487;DHT22;10402;49.012;8.370;2022-08-14T00:08:16;22.00;44.20
20487;DHT22;10402;49.012;8.370;2022-08-14T00:10:41;22.00;44.20
20487;DHT22;10402;49.012;8.370;2022-08-14T00:13:08;22.00;44.20
20487;DHT22;10402;49.012;8.370;2022-08-14T00:15:37;21.90;44.20
20487;DHT22;10402;49.012;8.370;2022-08-14T00:18:04;21.90;44.20
20487;DHT22;10402;49.012;8.370;2022-08-14T00:20:32;21.80;44.30
20487;DHT22;10402;49.012;8.370;2022-08-14T00:22:59;21.80;44.40
20487;DHT22;10402;49.012;8.370;2022-08-14T00:25:26;21.80;44.40
20487;DHT22;10402;49.012;8.370;2022-08-14T00:27:52;21.80;44.50
20487;DHT22;10402;49.012;8.370;2022-08-14T00:30:17;21.70;44.50
20487;DHT22;10402;49.012;8.370;2022-08-14T00:32:45;21.70;44.50
20487;DHT22;10402;49.012;8.370;2022-08-14T00:35:11;21.70;44.50
20487;DHT22;10402;49.012;8.370;2022-08-14T00:37:39;21.80;44.60
20487;DHT22;10402;49.012;8.370;2022-08-14T00:40:06;21.80;44.60
20487;DHT22;10402;49.012;8.370;2022-08-14T00:42:32;21.80;44.70
20487;DHT22;10402;49.012;8.370;2022-08-14T00:44:58;21.70;44.70
20487;DHT22;10402;49.012;8.370;2022-08-14T00:47:24;21.70;44.70
20487;DHT22;10402;49.012;8.370;2022-08-14T00:49:51;21.70;44.80
20487;DHT22;10402;49.012;8.370;2022-08-14T00:52:19;21.70;44.80
20487;DHT22;10402;49.012;8.370;2022-08-14T00:54:46;21.70;44.80
20487;DHT22;10402;49.012;8.370;2022-08-14T00:57:18;21.70;44.80
20487;DHT22;10402;49.012;8.370;2022-08-14T00:59:44;21.70;45.00
20487;DHT22;10402;49.012;8.370;2022-08-14T01:02:11;21.60;45.00
20487;DHT22;10402;49.012;8.370;2022-08-14T01:04:40;21.60;45.00
20487;DHT22;10402;49.012;8.370;2022-08-14T01:07:07;21.60;45.10
20487;DHT22;10402;49.012;8.370;2022-08-14T01:09:35;21.60;45.30
20487;DHT22;10402;49.012;8.370;2022-08-14T01:12:03;21.50;45.30
20487;DHT22;10402;49.012;8.370;2022-08-14T01:14:28;21.50;45.40
20487;DHT22;10402;49.012;8.370;2022-08-14T01:16:54;21.50;45.50
20487;DHT22;10402;49.012;8.370;2022-08-14T01:19:19;21.50;45.50
20487;DHT22;10402;49.012;8.370;2022-08-14T01:22:04;21.50;45.50
20487;DHT22;10402;49.012;8.370;2022-08-14T01:24:31;21.50;45.50
20487;DHT22;10402;49.012;8.370;2022-08-14T01:26:58;21.50;45.50
20487;DHT22;10402;49.012;8.370;2022-08-14T01:29:24;21.40;45.50
20487;DHT22;10402;49.012;8.370;2022-08-14T01:31:50;21.40;45.50
20487;DHT22;10402;49.012;8.370;2022-08-14T01:34:20;21.40;45.70
20487;DHT22;10402;49.012;8.370;2022-08-14T01:36:48;21.40;45.70
20487;DHT22;10402;49.012;8.370;2022-08-14T01:39:16;21.40;45.70
20487;DHT22;10402;49.012;8.370;2022-08-14T01:41:46;21.40;45.80
20487;DHT22;10402;49.012;8.370;2022-08-14T01:44:23;21.40;45.90
20487;DHT22;10402;49.012;8.370;2022-08-14T01:46:57;21.40;46.00
20487;DHT22;10402;49.012;8.370;2022-08-14T01:49:24;21.40;46.10
20487;DHT22;10402;49.012;8.370;2022-08-14T01:51:49;21.30;46.10
20487;DHT22;10402;49.012;8.370;2022-08-14T01:54:22;21.30;46.20
20487;DHT22;10402;49.012;8.370;2022-08-14T01:56:53;21.30;46.30
20487;DHT22;10402;49.012;8.370;2022-08-14T01:59:26;21.30;46.40
20487;DHT22;10402;49.012;8.370;2022-08-14T02:02:05;21.20;46.50
20487;DHT22;10402;49.012;8.370;2022-08-14T02:04:37;21.10;46.50
20487;DHT22;10402;49.012;8.370;2022-08-14T02:07:04;21.10;46.40
20487;DHT22;10402;49.012;8.370;2022-08-14T02:09:29;21.10;46.50
20487;DHT22;10402;49.012;8.370;2022-08-14T02:12:00;21.10;46.50
20487;DHT22;10402;49.012;8.370;2022-08-14T02:14:26;21.00;46.50
20487;DHT22;10402;49.012;8.370;2022-08-14T02:16:53;21.00;46.50
20487;DHT22;10402;49.012;8.370;2022-08-14T02:19:23;21.00;46.50
20487;DHT22;10402;49.012;8.370;2022-08-14T02:21:50;21.00;46.60
20487;DHT22;10402;49.012;8.370;2022-08-14T02:24:19;21.00;46.70
20487;DHT22;10402;49.012;8.370;2022-08-14T02:26:45;20.90;46.70
20487;DHT22;10402;49.012;8.370;2022-08-14T02:29:17;20.90;46.80
20487;DHT22;10402;49.012;8.370;2022-08-14T02:31:46;20.90;46.90
20487;DHT22;10402;49.012;8.370;2022-08-14T02:34:20;20.80;46.90
20487;DHT22;10402;49.012;8.370;2022-08-14T02:36:48;20.80;47.00
20487;DHT22;10402;49.012;8.370;2022-08-14T02:39:14;20.80;47.10
20487;DHT22;10402;49.012;8.370;2022-08-14T02:41:40;20.80;47.30
20487;DHT22;10402;49.012;8.370;2022-08-14T02:44:07;20.70;47.30
20487;DHT22;10402;49.012;8.370;2022-08-14T02:46:35;20.70;47.40
20487;DHT22;10402;49.012;8.370;2022-08-14T02:49:02;20.70;47.50
20487;DHT22;10402;49.012;8.370;2022-08-14T02:51:28;20.70;47.50
20487;DHT22;10402;49.012;8.370;2022-08-14T02:53:55;20.70;47.50
20487;DHT22;10402;49.012;8.370;2022-08-14T02:56:21;20.70;47.50
20487;DHT22;10402;49.012;8.370;2022-08-14T02:58:49;20.60;47.60
20487;DHT22;10402;49.012;8.370;2022-08-14T03:01:17;20.60;47.70
20487;DHT22;10402;49.012;8.370;2022-08-14T03:03:44;20.50;47.70
20487;DHT22;10402;49.012;8.370;2022-08-14T03:06:11;20.50;47.90
20487;DHT22;10402;49.012;8.370;2022-08-14T03:08:38;20.40;47.90
20487;DHT22;10402;49.012;8.370;2022-08-14T03:11:06;20.40;48.00
20487;DHT22;10402;49.012;8.370;2022-08-14T03:13:45;20.40;48.00
20487;DHT22;10402;49.012;8.370;2022-08-14T03:16:14;20.40;48.20
20487;DHT22;10402;49.012;8.370;2022-08-14T03:18:45;20.30;48.20
20487;DHT22;10402;49.012;8.370;2022-08-14T03:21:14;20.30;48.30
20487;DHT22;10402;49.012;8.370;2022-08-14T03:23:42;20.20;48.40
20487;DHT22;10402;49.012;8.370;2022-08-14T03:26:11;20.20;48.50
20487;DHT22;10402;49.012;8.370;2022-08-14T03:28:38;20.10;48.50
20487;DHT22;10402;49.012;8.370;2022-08-14T03:31:08;20.10;48.50
20487;DHT22;10402;49.012;8.370;2022-08-14T03:33:34;20.10;48.50
20487;DHT22;10402;49.012;8.370;2022-08-14T03:36:07;20.10;48.50
20487;DHT22;10402;49.012;8.370;2022-08-14T03:38:36;20.00;48.40
20487;DHT22;10402;49.012;8.370;2022-08-14T03:41:10;20.00;48.50
20487;DHT22;10402;49.012;8.370;2022-08-14T03:43:39;20.00;48.50
20487;DHT22;10402;49.012;8.370;2022-08-14T03:46:05;20.00;48.60
20487;DHT22;10402;49.012;8.370;2022-08-14T03:48:31;20.00;48.70
20487;DHT22;10402;49.012;8.370;2022-08-14T03:50:57;20.00;48.80
20487;DHT22;10402;49.012;8.370;2022-08-14T03:53:23;19.90;48.80
20487;DHT22;10402;49.012;8.370;2022-08-14T03:55:49;19.90;48.90
20487;DHT22;10402;49.012;8.370;2022-08-14T03:58:15;19.90;48.90
20487;DHT22;10402;49.012;8.370;2022-08-14T04:00:41;19.80;49.00
20487;DHT22;10402;49.012;8.370;2022-08-14T04:03:08;19.70;49.10
20487;DHT22;10402;49.012;8.370;2022-08-14T04:05:35;19.70;49.30
20487;DHT22;10402;49.012;8.370;2022-08-14T04:08:09;19.70;49.40
20487;DHT22;10402;49.012;8.370;2022-08-14T04:10:35;19.70;49.40
20487;DHT22;10402;49.012;8.370;2022-08-14T04:13:03;19.60;49.40
20487;DHT22;10402;49.012;8.370;2022-08-14T04:15:33;19.60;49.50
20487;DHT22;10402;49.012;8.370;2022-08-14T04:18:04;19.50;49.40
20487;DHT22;10402;49.012;8.370;2022-08-14T04:20:33;19.50;49.50
20487;DHT22;10402;49.012;8.370;2022-08-14T04:22:59;19.50;49.60
20487;DHT22;10402;49.012;8.370;2022-08-14T04:25:25;19.40;49.70
20487;DHT22;10402;49.012;8.370;2022-08-14T04:27:50;19.40;50.00
20487;DHT22;10402;49.012;8.370;2022-08-14T04:30:16;19.40;50.00
20487;DHT22;10402;49.012;8.370;2022-08-14T04:32:41;19.30;50.10
20487;DHT22;10402;49.012;8.370;2022-08-14T04:35:07;19.30;50.20
20487;DHT22;10402;49.012;8.370;2022-08-14T04:37:35;19.30;50.20
20487;DHT22;10402;49.012;8.370;2022-08-14T04:40:19;19.30;50.30
20487;DHT22;10402;49.012;8.370;2022-08-14T04:43:03;19.20;50.20
20487;DHT22;10402;49.012;8.370;2022-08-14T04:45:47;19.20;50.30
20487;DHT22;10402;49.012;8.370;2022-08-14T04:48:14;19.20;51.10
20487;DHT22;10402;49.012;8.370;2022-08-14T04:50:41;19.20;50.50
20487;DHT22;10402;49.012;8.370;2022-08-14T04:53:08;19.30;50.40
20487;DHT22;10402;49.012;8.370;2022-08-14T04:55:35;19.30;50.20
20487;DHT22;10402;49.012;8.370;2022-08-14T04:58:03;19.30;50.20
20487;DHT22;10402;49.012;8.370;2022-08-14T05:00:30;19.30;50.50
20487;DHT22;10402;49.012;8.370;2022-08-14T05:02:55;19.30;50.70
20487;DHT22;10402;49.012;8.370;2022-08-14T05:05:22;19.30;50.70
20487;DHT22;10402;49.012;8.370;2022-08-14T05:07:50;19.40;50.70
20487;DHT22;10402;49.012;8.370;2022-08-14T05:10:15;19.40;50.70
20487;DHT22;10402;49.012;8.370;2022-08-14T05:12:41;19.40;50.70
20487;DHT22;10402;49.012;8.370;2022-08-14T05:15:07;19.50;50.70
20487;DHT22;10402;49.012;8.370;2022-08-14T05:17:40;19.50;50.70
20487;DHT22;10402;49.012;8.370;2022-08-14T05:20:06;19.50;50.70
20487;DHT22;10402;49.012;8.370;2022-08-14T05:22:33;19.50;50.70
20487;DHT22;10402;49.012;8.370;2022-08-14T05:24:59;19.50;50.80
20487;DHT22;10402;49.012;8.370;2022-08-14T05:27:26;19.50;50.90
20487;DHT22;10402;49.012;8.370;2022-08-14T05:29:52;19.50;50.90
20487;DHT22;10402;49.012;8.370;2022-08-14T05:32:17;19.50;50.90
20487;DHT22;10402;49.012;8.370;2022-08-14T05:34:43;19.60;51.10
20487;DHT22;10402;49.012;8.370;2022-08-14T05:37:08;19.50;51.20
20487;DHT22;10402;49.012;8.370;2022-08-14T05:39:34;19.50;51.40
20487;DHT22;10402;49.012;8.370;2022-08-14T05:42:00;19.50;51.50
20487;DHT22;10402;49.012;8.370;2022-08-14T05:44:25;19.50;51.60
20487;DHT22;10402;49.012;8.370;2022-08-14T05:46:51;19.60;51.80
20487;DHT22;10402;49.012;8.370;2022-08-14T05:49:16;19.60;52.00
20487;DHT22;10402;49.012;8.370;2022-08-14T05:51:42;19.60;52.70
20487;DHT22;10402;49.012;8.370;2022-08-14T05:54:10;19.60;52.10
20487;DHT22;10402;49.012;8.370;2022-08-14T05:56:36;19.70;52.20
20487;DHT22;10402;49.012;8.370;2022-08-14T05:59:02;19.80;52.20
20487;DHT22;10402;49.012;8.370;2022-08-14T06:01:27;19.90;52.00
20487;DHT22;10402;49.012;8.370;2022-08-14T06:03:53;20.00;52.00
20487;DHT22;10402;49.012;8.370;2022-08-14T06:06:18;20.10;51.90
20487;DHT22;10402;49.012;8.370;2022-08-14T06:08:44;20.20;51.90
20487;DHT22;10402;49.012;8.370;2022-08-14T06:11:10;20.20;51.80
20487;DHT22;10402;49.012;8.370;2022-08-14T06:13:40;20.30;51.90
20487;DHT22;10402;49.012;8.370;2022-08-14T06:16:06;20.40;52.00
20487;DHT22;10402;49.012;8.370;2022-08-14T06:18:33;20.40;52.00
20487;DHT22;10402;49.012;8.370;2022-08-14T06:21:00;20.50;52.00
20487;DHT22;10402;49.012;8.370;2022-08-14T06:23:26;20.60;51.90
20487;DHT22;10402;49.012;8.370;2022-08-14T06:25:51;20.70;51.90
20487;DHT22;10402;49.012;8.370;2022-08-14T06:28:18;20.70;51.80
20487;DHT22;10402;49.012;8.370;2022-08-14T06:30:43;20.70;52.00
20487;DHT22;10402;49.012;8.370;2022-08-14T06:33:09;20.80;52.00
20487;DHT22;10402;49.012;8.370;2022-08-14T06:35:34;20.90;51.90
20487;DHT22;10402;49.012;8.370;2022-08-14T06:38:00;20.90;51.60
20487;DHT22;10402;49.012;8.370;2022-08-14T06:40:28;21.00;51.60
20487;DHT22;10402;49.012;8.370;2022-08-14T06:42:56;21.10;51.70
20487;DHT22;10402;49.012;8.370;2022-08-14T06:45:22;21.20;51.80
20487;DHT22;10402;49.012;8.370;2022-08-14T06:47:48;21.20;51.60
20487;DHT22;10402;49.012;8.370;2022-08-14T06:50:16;21.30;51.50
20487;DHT22;10402;49.012;8.370;2022-08-14T06:52:42;21.40;51.50
20487;DHT22;10402;49.012;8.370;2022-08-14T06:55:10;21.50;51.60
20487;DHT22;10402;49.012;8.370;2022-08-14T06:57:40;21.60;51.40
20487;DHT22;10402;49.012;8.370;2022-08-14T07:00:14;21.70;51.40
20487;DHT22;10402;49.012;8.370;2022-08-14T07:02:40;21.70;51.40
20487;DHT22;10402;49.012;8.370;2022-08-14T07:05:25;21.80;51.40
20487;DHT22;10402;49.012;8.370;2022-08-14T07:08:18;21.90;51.40
20487;DHT22;10402;49.012;8.370;2022-08-14T07:10:46;22.00;51.40
20487;DHT22;10402;49.012;8.370;2022-08-14T07:13:13;22.10;51.40
20487;DHT22;10402;49.012;8.370;2022-08-14T07:15:40;22.20;51.50
20487;DHT22;10402;49.012;8.370;2022-08-14T07:18:07;22.20;51.40
20487;DHT22;10402;49.012;8.370;2022-08-14T07:20:33;22.30;51.40
20487;DHT22;10402;49.012;8.370;2022-08-14T07:23:03;22.40;51.30
20487;DHT22;10402;49.012;8.370;2022-08-14T07:25:31;22.50;51.20
20487;DHT22;10402;49.012;8.370;2022-08-14T07:27:57;22.60;51.10
20487;DHT22;10402;49.012;8.370;2022-08-14T07:30:22;22.70;51.00
20487;DHT22;10402;49.012;8.370;2022-08-14T07:32:48;22.80;50.90
20487;DHT22;10402;49.012;8.370;2022-08-14T07:35:14;22.90;50.90
20487;DHT22;10402;49.012;8.370;2022-08-14T07:37:40;23.00;50.90
20487;DHT22;10402;49.012;8.370;2022-08-14T07:40:06;23.00;50.80
20487;DHT22;10402;49.012;8.370;2022-08-14T07:42:32;23.10;50.90
20487;DHT22;10402;49.012;8.370;2022-08-14T07:44:59;23.10;50.80
20487;DHT22;10402;49.012;8.370;2022-08-14T07:47:25;23.20;50.60
20487;DHT22;10402;49.012;8.370;2022-08-14T07:50:00;23.30;50.60
20487;DHT22;10402;49.012;8.370;2022-08-14T07:52:27;23.30;50.50
20487;DHT22;10402;49.012;8.370;2022-08-14T07:54:53;23.40;50.40
20487;DHT22;10402;49.012;8.370;2022-08-14T07:57:19;23.50;50.20
20487;DHT22;10402;49.012;8.370;2022-08-14T07:59:45;23.60;50.20
20487;DHT22;10402;49.012;8.370;2022-08-14T08:02:13;23.70;50.10
20487;DHT22;10402;49.012;8.370;2022-08-14T08:04:43;23.90;50.10
20487;DHT22;10402;49.012;8.370;2022-08-14T08:07:09;24.00;49.80
20487;DHT22;10402;49.012;8.370;2022-08-14T08:09:35;24.10;49.60
20487;DHT22;10402;49.012;8.370;2022-08-14T08:12:02;24.20;49.30
20487;DHT22;10402;49.012;8.370;2022-08-14T08:14:29;24.30;49.20
20487;DHT22;10402;49.012;8.370;2022-08-14T08:16:55;24.40;48.90
20487;DHT22;10402;49.012;8.370;2022-08-14T08:19:21;24.50;48.70
20487;DHT22;10402;49.012;8.370;2022-08-14T08:21:47;24.60;48.50
20487;DHT22;10402;49.012;8.370;2022-08-14T08:24:13;24.70;48.20
20487;DHT22;10402;49.012;8.370;2022-08-14T08:26:40;24.70;47.80
20487;DHT22;10402;49.012;8.370;2022-08-14T08:29:06;24.80;47.70
20487;DHT22;10402;49.012;8.370;2022-08-14T08:31:31;24.90;47.60
20487;DHT22;10402;49.012;8.370;2022-08-14T08:33:57;25.10;47.50
20487;DHT22;10402;49.012;8.370;2022-08-14T08:36:22;25.10;47.20
20487;DHT22;10402;49.012;8.370;2022-08-14T08:38:48;25.20;47.10
20487;DHT22;10402;49.012;8.370;2022-08-14T08:41:14;25.30;47.10
20487;DHT22;10402;49.012;8.370;2022-08-14T08:43:40;25.40;46.80
20487;DHT22;10402;49.012;8.370;2022-08-14T08:46:12;25.50;46.60
20487;DHT22;10402;49.012;8.370;2022-08-14T08:48:50;25.60;46.40
20487;DHT22;10402;49.012;8.370;2022-08-14T08:54:05;25.90;45.80
20487;DHT22;10402;49.012;8.370;2022-08-14T08:56:48;26.00;45.50
20487;DHT22;10402;49.012;8.370;2022-08-14T08:59:20;26.10;45.40
20487;DHT22;10402;49.012;8.370;2022-08-14T09:01:55;26.20;45.10
20487;DHT22;10402;49.012;8.370;2022-08-14T09:04:24;26.40;44.90
20487;DHT22;10402;49.012;8.370;2022-08-14T09:06:50;26.40;44.50
20487;DHT22;10402;49.012;8.370;2022-08-14T09:09:18;26.60;44.30
20487;DHT22;10402;49.012;8.370;2022-08-14T09:11:44;26.70;44.30
20487;DHT22;10402;49.012;8.370;2022-08-14T09:14:09;26.80;44.00
20487;DHT22;10402;49.012;8.370;2022-08-14T09:16:35;26.90;43.80
20487;DHT22;10402;49.012;8.370;2022-08-14T09:19:01;27.00;43.30
20487;DHT22;10402;49.012;8.370;2022-08-14T09:21:27;27.10;43.30
20487;DHT22;10402;49.012;8.370;2022-08-14T09:23:53;27.20;43.20
20487;DHT22;10402;49.012;8.370;2022-08-14T09:26:19;27.30;43.00
20487;DHT22;10402;49.012;8.370;2022-08-14T09:28:44;27.40;42.90
20487;DHT22;10402;49.012;8.370;2022-08-14T09:31:10;27.50;42.70
20487;DHT22;10402;49.012;8.370;2022-08-14T09:39:12;27.90;41.50
20487;DHT22;10402;49.012;8.370;2022-08-14T09:45:02;28.00;41.10
20487;DHT22;10402;49.012;8.370;2022-08-14T09:47:45;28.10;40.70
20487;DHT22;10402;49.012;8.370;2022-08-14T09:50:23;28.20;40.70
20487;DHT22;10402;49.012;8.370;2022-08-14T09:52:57;28.30;40.70
20487;DHT22;10402;49.012;8.370;2022-08-14T09:55:25;28.30;40.70
20487;DHT22;10402;49.012;8.370;2022-08-14T09:57:51;28.30;41.00
20487;DHT22;10402;49.012;8.370;2022-08-14T10:00:18;28.40;40.10
20487;DHT22;10402;49.012;8.370;2022-08-14T10:02:56;28.50;40.10
20487;DHT22;10402;49.012;8.370;2022-08-14T10:05:32;28.60;40.10
20487;DHT22;10402;49.012;8.370;2022-08-14T10:08:00;28.60;39.80
20487;DHT22;10402;49.012;8.370;2022-08-14T10:10:36;28.70;39.70
20487;DHT22;10402;49.012;8.370;2022-08-14T10:13:04;28.80;39.60
20487;DHT22;10402;49.012;8.370;2022-08-14T10:15:32;28.80;39.40
20487;DHT22;10402;49.012;8.370;2022-08-14T10:18:11;28.90;39.10
20487;DHT22;10402;49.012;8.370;2022-08-14T10:20:43;28.90;39.10
20487;DHT22;10402;49.012;8.370;2022-08-14T10:23:14;29.00;39.00
20487;DHT22;10402;49.012;8.370;2022-08-14T10:25:42;29.00;38.80
20487;DHT22;10402;49.012;8.370;2022-08-14T10:28:10;29.00;38.80
20487;DHT22;10402;49.012;8.370;2022-08-14T10:30:40;29.10;38.70
20487;DHT22;10402;49.012;8.370;2022-08-14T10:33:06;29.20;38.60
20487;DHT22;10402;49.012;8.370;2022-08-14T10:35:42;29.40;38.50
20487;DHT22;10402;49.012;8.370;2022-08-14T10:38:08;29.40;38.30
20487;DHT22;10402;49.012;8.370;2022-08-14T10:40:35;29.40;38.10
20487;DHT22;10402;49.012;8.370;2022-08-14T10:43:01;29.40;38.10
20487;DHT22;10402;49.012;8.370;2022-08-14T10:45:33;29.40;38.00
20487;DHT22;10402;49.012;8.370;2022-08-14T10:47:59;29.40;37.90
20487;DHT22;10402;49.012;8.370;2022-08-14T10:50:35;29.40;37.80
20487;DHT22;10402;49.012;8.370;2022-08-14T10:53:03;29.50;37.90
20487;DHT22;10402;49.012;8.370;2022-08-14T10:55:37;29.50;37.60
20487;DHT22;10402;49.012;8.370;2022-08-14T10:58:07;29.50;37.50
20487;DHT22;10402;49.012;8.370;2022-08-14T11:00:38;29.50;37.50
20487;DHT22;10402;49.012;8.370;2022-08-14T11:03:10;29.60;37.10
20487;DHT22;10402;49.012;8.370;2022-08-14T11:05:48;29.60;37.10
20487;DHT22;10402;49.012;8.370;2022-08-14T11:08:15;29.60;37.00
20487;DHT22;10402;49.012;8.370;2022-08-14T11:10:48;29.60;36.90
20487;DHT22;10402;49.012;8.370;2022-08-14T11:13:19;29.60;36.90
20487;DHT22;10402;49.012;8.370;2022-08-14T11:15:46;29.70;36.80
20487;DHT22;10402;49.012;8.370;2022-08-14T11:18:13;29.70;36.60
20487;DHT22;10402;49.012;8.370;2022-08-14T11:20:47;29.70;36.40
20487;DHT22;10402;49.012;8.370;2022-08-14T11:23:15;29.80;36.40
20487;DHT22;10402;49.012;8.370;2022-08-14T11:25:44;29.90;36.30
20487;DHT22;10402;49.012;8.370;2022-08-14T11:28:14;29.90;36.10
20487;DHT22;10402;49.012;8.370;2022-08-14T11:30:42;29.90;35.90
20487;DHT22;10402;49.012;8.370;2022-08-14T11:33:12;29.90;35.80
20487;DHT22;10402;49.012;8.370;2022-08-14T11:35:38;30.00;35.80
20487;DHT22;10402;49.012;8.370;2022-08-14T11:38:05;30.00;35.50
20487;DHT22;10402;49.012;8.370;2022-08-14T11:40:34;30.10;35.30
20487;DHT22;10402;49.012;8.370;2022-08-14T11:43:04;30.10;35.20
20487;DHT22;10402;49.012;8.370;2022-08-14T11:45:37;30.10;35.20
20487;DHT22;10402;49.012;8.370;2022-08-14T11:48:17;30.10;35.20
20487;DHT22;10402;49.012;8.370;2022-08-14T11:50:44;30.20;35.00
20487;DHT22;10402;49.012;8.370;2022-08-14T11:53:27;30.30;34.60
20487;DHT22;10402;49.012;8.370;2022-08-14T11:56:00;30.30;34.20
20487;DHT22;10402;49.012;8.370;2022-08-14T11:58:34;30.40;34.20
20487;DHT22;10402;49.012;8.370;2022-08-14T12:01:03;30.40;34.30
20487;DHT22;10402;49.012;8.370;2022-08-14T12:03:42;30.40;34.10
20487;DHT22;10402;49.012;8.370;2022-08-14T12:06:10;30.40;33.70
20487;DHT22;10402;49.012;8.370;2022-08-14T12:08:37;30.50;33.40
20487;DHT22;10402;49.012;8.370;2022-08-14T12:11:04;30.50;33.30
20487;DHT22;10402;49.012;8.370;2022-08-14T12:13:31;30.50;33.30
20487;DHT22;10402;49.012;8.370;2022-08-14T12:16:06;30.50;33.00
20487;DHT22;10402;49.012;8.370;2022-08-14T12:18:34;30.50;32.70
20487;DHT22;10402;49.012;8.370;2022-08-14T12:21:30;30.60;32.40
20487;DHT22;10402;49.012;8.370;2022-08-14T12:24:07;30.60;32.40
20487;DHT22;10402;49.012;8.370;2022-08-14T12:26:33;30.70;32.20
20487;DHT22;10402;49.012;8.370;2022-08-14T12:29:27;30.80;32.00
20487;DHT22;10402;49.012;8.370;2022-08-14T12:31:59;30.90;32.00
20487;DHT22;10402;49.012;8.370;2022-08-14T12:34:32;30.90;31.90
20487;DHT22;10402;49.012;8.370;2022-08-14T12:37:03;30.90;31.90
20487;DHT22;10402;49.012;8.370;2022-08-14T12:39:32;30.90;31.90
20487;DHT22;10402;49.012;8.370;2022-08-14T12:41:58;30.90;31.90
20487;DHT22;10402;49.012;8.370;2022-08-14T12:44:39;30.90;31.60
20487;DHT22;10402;49.012;8.370;2022-08-14T12:47:16;30.90;31.40
20487;DHT22;10402;49.012;8.370;2022-08-14T12:49:52;31.00;31.70
20487;DHT22;10402;49.012;8.370;2022-08-14T12:52:30;31.00;31.30
20487;DHT22;10402;49.012;8.370;2022-08-14T12:55:01;31.10;31.30
20487;DHT22;10402;49.012;8.370;2022-08-14T13:00:09;31.10;31.00
20487;DHT22;10402;49.012;8.370;2022-08-14T13:02:47;31.20;31.00
20487;DHT22;10402;49.012;8.370;2022-08-14T13:05:14;31.20;31.00
20487;DHT22;10402;49.012;8.370;2022-08-14T13:07:42;31.30;30.90
20487;DHT22;10402;49.012;8.370;2022-08-14T13:10:12;31.40;30.80
20487;DHT22;10402;49.012;8.370;2022-08-14T13:12:41;31.40;30.60
20487;DHT22;10402;49.012;8.370;2022-08-14T13:15:11;31.50;30.70
20487;DHT22;10402;49.012;8.370;2022-08-14T13:17:46;31.50;30.40
20487;DHT22;10402;49.012;8.370;2022-08-14T13:20:14;31.50;30.30
20487;DHT22;10402;49.012;8.370;2022-08-14T13:22:42;31.60;30.20
20487;DHT22;10402;49.012;8.370;2022-08-14T13:25:11;31.60;30.10
20487;DHT22;10402;49.012;8.370;2022-08-14T13:27:37;31.60;30.20
20487;DHT22;10402;49.012;8.370;2022-08-14T13:30:08;31.60;30.00
20487;DHT22;10402;49.012;8.370;2022-08-14T13:32:35;31.60;30.10
20487;DHT22;10402;49.012;8.370;2022-08-14T13:35:05;31.70;30.00
20487;DHT22;10402;49.012;8.370;2022-08-14T13:37:31;31.70;30.00
20487;DHT22;10402;49.012;8.370;2022-08-14T13:39:57;31.70;30.10
20487;DHT22;10402;49.012;8.370;2022-08-14T13:42:24;31.80;30.20
20487;DHT22;10402;49.012;8.370;2022-08-14T13:44:53;31.80;30.20
20487;DHT22;10402;49.012;8.370;2022-08-14T13:47:21;31.80;30.10
20487;DHT22;10402;49.012;8.370;2022-08-14T13:49:46;31.90;30.00
20487;DHT22;10402;49.012;8.370;2022-08-14T13:52:18;31.90;29.90
20487;DHT22;10402;49.012;8.370;2022-08-14T13:54:46;31.90;29.60
20487;DHT22;10402;49.012;8.370;2022-08-14T13:57:15;31.90;29.70
20487;DHT22;10402;49.012;8.370;2022-08-14T13:59:49;31.90;29.60
20487;DHT22;10402;49.012;8.370;2022-08-14T14:02:17;31.90;29.70
20487;DHT22;10402;49.012;8.370;2022-08-14T14:04:45;32.00;29.80
20487;DHT22;10402;49.012;8.370;2022-08-14T14:07:13;31.90;29.80
20487;DHT22;10402;49.012;8.370;2022-08-14T14:09:41;31.90;29.80
20487;DHT22;10402;49.012;8.370;2022-08-14T14:12:08;31.90;29.80
20487;DHT22;10402;49.012;8.370;2022-08-14T14:14:35;31.90;29.80
20487;DHT22;10402;49.012;8.370;2022-08-14T14:17:05;31.90;29.70
20487;DHT22;10402;49.012;8.370;2022-08-14T14:19:32;31.90;29.70
20487;DHT22;10402;49.012;8.370;2022-08-14T14:22:00;31.90;29.80
20487;DHT22;10402;49.012;8.370;2022-08-14T14:24:27;31.90;29.80
20487;DHT22;10402;49.012;8.370;2022-08-14T14:26:54;31.90;29.80
20487;DHT22;10402;49.012;8.370;2022-08-14T14:29:24;31.90;29.80
20487;DHT22;10402;49.012;8.370;2022-08-14T14:31:51;31.90;29.80
20487;DHT22;10402;49.012;8.370;2022-08-14T14:34:17;31.90;29.80
20487;DHT22;10402;49.012;8.370;2022-08-14T14:36:48;31.90;30.30
20487;DHT22;10402;49.012;8.370;2022-08-14T14:39:15;31.90;29.80
20487;DHT22;10402;49.012;8.370;2022-08-14T14:41:42;31.90;29.80
20487;DHT22;10402;49.012;8.370;2022-08-14T14:44:11;32.00;29.60
20487;DHT22;10402;49.012;8.370;2022-08-14T14:46:38;31.90;29.60
20487;DHT22;10402;49.012;8.370;2022-08-14T14:49:06;31.90;29.40
20487;DHT22;10402;49.012;8.370;2022-08-14T14:51:32;31.90;29.30
20487;DHT22;10402;49.012;8.370;2022-08-14T14:53:58;31.90;29.20
20487;DHT22;10402;49.012;8.370;2022-08-14T14:56:28;31.90;29.20
20487;DHT22;10402;49.012;8.370;2022-08-14T14:58:53;31.80;29.00
20487;DHT22;10402;49.012;8.370;2022-08-14T15:01:19;31.80;29.00
20487;DHT22;10402;49.012;8.370;2022-08-14T15:03:48;31.80;29.00
20487;DHT22;10402;49.012;8.370;2022-08-14T15:06:21;31.80;28.90
20487;DHT22;10402;49.012;8.370;2022-08-14T15:08:47;31.80;29.00
20487;DHT22;10402;49.012;8.370;2022-08-14T15:11:13;31.70;29.00
20487;DHT22;10402;49.012;8.370;2022-08-14T15:13:39;31.70;29.10
20487;DHT22;10402;49.012;8.370;2022-08-14T15:16:07;31.70;29.10
20487;DHT22;10402;49.012;8.370;2022-08-14T15:18:34;31.70;29.10
20487;DHT22;10402;49.012;8.370;2022-08-14T15:21:00;31.70;29.10
20487;DHT22;10402;49.012;8.370;2022-08-14T15:23:28;31.70;29.10
20487;DHT22;10402;49.012;8.370;2022-08-14T15:25:53;31.70;29.10
20487;DHT22;10402;49.012;8.370;2022-08-14T15:28:21;31.70;29.10
20487;DHT22;10402;49.012;8.370;2022-08-14T15:30:47;31.60;29.00
20487;DHT22;10402;49.012;8.370;2022-08-14T15:33:13;31.60;29.00
20487;DHT22;10402;49.012;8.370;2022-08-14T15:35:39;31.60;28.80
20487;DHT22;10402;49.012;8.370;2022-08-14T15:38:05;31.60;28.70
20487;DHT22;10402;49.012;8.370;2022-08-14T15:40:38;31.60;28.60
20487;DHT22;10402;49.012;8.370;2022-08-14T15:43:06;31.50;28.50
20487;DHT22;10402;49.012;8.370;2022-08-14T15:45:31;31.50;28.50
20487;DHT22;10402;49.012;8.370;2022-08-14T15:47:58;31.50;28.50
20487;DHT22;10402;49.012;8.370;2022-08-14T15:50:24;31.50;28.60
20487;DHT22;10402;49.012;8.370;2022-08-14T15:52:50;31.50;28.50